首页
METAR-TAF:

METAR-TAF

机场 :

大西洋城國際機場

大西洋城, 新泽西州, 美国

纬度: 39-27-53N, 经度: 074-35-12W, 海拔: 23米

当前天气观测

该预报发布于11分钟前的01:14 UTC
风速9节,风向
温度 22°C
湿度 94%
气压 1015 hPa
能見度: 2.4公里
散云层高于3100英尺
多云层高于5500英尺
阴天层高于9000英尺
大雨, 轻雾

METAR: KACY 180114Z 10009KT 1 1/2SM +RA BR SCT031 BKN055 OVC090 22/21 A2998 RMK AO2 RAB0057 P0023 T02220206

时间: 21:25 (01:25 UTC)

预报

该预报发布于1小时和59分钟前的23:26 UTC
预报有效从18日的 00点(UTC)到 18日的 24点(UTC)
风速3节,风向多变
能見度: 10公里
阴天层高于8000英尺
短暂存在
从 18日的 00点(UTC)到 18日的 03点(UTC)
能見度: 3.2公里
阴天层高于2500英尺, 积雨云.
雷暴, 雨
从 18日的 0300点(UTC)
风速3节,风向多变
能見度: 10公里
阴天层高于3500英尺
从 18日的 0600点(UTC)
风速3节,风向多变
能見度: 8.0公里
阴天层高于1500英尺
轻雾
从 18日的 0800点(UTC)
风速2节,风向多变
能見度: 3.2公里
阴天层高于500英尺
轻雾
几率 30%
从 18日的 11点(UTC)到 18日的 13点(UTC)
能見度: 3.2公里
阴天层高于800英尺
小阵雨
从 18日的 1300点(UTC)
风速3节,风向多变
能見度: 10公里
多云层高于1500英尺
几率 30%
从 18日的 13点(UTC)到 18日的 15点(UTC)
能見度: 6.4公里
阴天层高于800英尺
小阵雨
从 18日的 1500点(UTC)
风速4节,风向多变
能見度: 10公里
多云层高于3500英尺
几率 30%
从 18日的 15点(UTC)到 18日的 18点(UTC)
能見度: 6.4公里
阴天层高于2500英尺
小阵雨

TAF: KACY 172326Z 1800/1824 VRB03KT P6SM OVC080 TEMPO 1800/1803 2SM TSRA OVC025CB FM180300 VRB03KT P6SM OVC035 FM180600 VRB03KT 5SM BR OVC015 FM180800 VRB02KT 2SM BR OVC005 PROB30 1811/1813 2SM -SHRA OVC008 FM181300 VRB03KT P6SM BKN015 PROB30 1813/1815 4SM -SHRA OVC008 FM181500 VRB04KT P6SM BKN035 PROB30 1815/1818 4SM -SHRA OVC025

超过4000个机场的气象观测和天气预报(METAR&TAF报告)。

可查询的气象台以黄色和红色小点在地图上表示。

将鼠标移到小点上方,可查看气象台名称。

然后点击查看天气观测和预报。

如需切换地图:点击带黑十字的绿色按钮放大地图;点击带横线的绿色按钮缩小地图;或者点击绿色箭头查看邻近地区的地图。


METAR-TAF: